sensor_id;sensor_type;location;lat;lon;timestamp;temperature;humidity
24097;DHT22;12275;48.550;12.132;2022-12-29T00:02:00;3.70;99.90
24097;DHT22;12275;48.550;12.132;2022-12-29T00:04:26;3.70;99.90
24097;DHT22;12275;48.550;12.132;2022-12-29T00:06:51;3.70;99.90
24097;DHT22;12275;48.550;12.132;2022-12-29T00:09:17;3.70;99.90
24097;DHT22;12275;48.550;12.132;2022-12-29T00:11:43;3.70;99.90
24097;DHT22;12275;48.550;12.132;2022-12-29T00:14:09;3.70;99.90
24097;DHT22;12275;48.550;12.132;2022-12-29T00:16:53;3.60;99.90
24097;DHT22;12275;48.550;12.132;2022-12-29T00:19:18;3.60;99.90
24097;DHT22;12275;48.550;12.132;2022-12-29T00:22:02;3.60;99.90
24097;DHT22;12275;48.550;12.132;2022-12-29T00:24:46;3.60;99.90
24097;DHT22;12275;48.550;12.132;2022-12-29T00:27:31;3.60;99.90
24097;DHT22;12275;48.550;12.132;2022-12-29T00:30:16;3.50;99.90
24097;DHT22;12275;48.550;12.132;2022-12-29T00:33:07;3.50;99.90
24097;DHT22;12275;48.550;12.132;2022-12-29T00:35:53;3.50;99.90
24097;DHT22;12275;48.550;12.132;2022-12-29T00:38:19;3.40;99.90
24097;DHT22;12275;48.550;12.132;2022-12-29T00:41:04;3.40;99.90
24097;DHT22;12275;48.550;12.132;2022-12-29T00:43:48;3.40;99.90
24097;DHT22;12275;48.550;12.132;2022-12-29T00:46:39;3.50;99.90
24097;DHT22;12275;48.550;12.132;2022-12-29T00:49:05;3.50;99.90
24097;DHT22;12275;48.550;12.132;2022-12-29T00:51:49;3.40;99.90
24097;DHT22;12275;48.550;12.132;2022-12-29T00:54:16;3.40;99.90
24097;DHT22;12275;48.550;12.132;2022-12-29T00:56:41;3.40;99.90
24097;DHT22;12275;48.550;12.132;2022-12-29T00:59:08;3.40;99.90
24097;DHT22;12275;48.550;12.132;2022-12-29T01:01:34;3.40;99.90
24097;DHT22;12275;48.550;12.132;2022-12-29T01:03:59;3.40;99.90
24097;DHT22;12275;48.550;12.132;2022-12-29T01:06:25;3.40;99.90
24097;DHT22;12275;48.550;12.132;2022-12-29T01:08:51;3.40;99.90
24097;DHT22;12275;48.550;12.132;2022-12-29T01:11:37;3.40;99.90
24097;DHT22;12275;48.550;12.132;2022-12-29T01:14:02;3.40;99.90
24097;DHT22;12275;48.550;12.132;2022-12-29T01:16:28;3.30;99.90
24097;DHT22;12275;48.550;12.132;2022-12-29T01:18:53;3.30;99.90
24097;DHT22;12275;48.550;12.132;2022-12-29T01:21:19;3.30;99.90
24097;DHT22;12275;48.550;12.132;2022-12-29T01:23:44;3.30;99.90
24097;DHT22;12275;48.550;12.132;2022-12-29T01:26:13;3.30;99.90
24097;DHT22;12275;48.550;12.132;2022-12-29T01:28:39;3.40;99.90
24097;DHT22;12275;48.550;12.132;2022-12-29T01:31:10;3.40;99.90
24097;DHT22;12275;48.550;12.132;2022-12-29T01:33:36;3.30;99.90
24097;DHT22;12275;48.550;12.132;2022-12-29T01:36:02;3.20;99.90
24097;DHT22;12275;48.550;12.132;2022-12-29T01:38:28;3.20;99.90
24097;DHT22;12275;48.550;12.132;2022-12-29T01:40:53;3.20;99.90
24097;DHT22;12275;48.550;12.132;2022-12-29T01:43:19;3.20;99.90
24097;DHT22;12275;48.550;12.132;2022-12-29T01:45:51;3.10;99.90
24097;DHT22;12275;48.550;12.132;2022-12-29T01:48:18;3.20;99.90
24097;DHT22;12275;48.550;12.132;2022-12-29T01:50:46;3.10;99.90
24097;DHT22;12275;48.550;12.132;2022-12-29T01:53:19;3.10;99.90
24097;DHT22;12275;48.550;12.132;2022-12-29T01:55:48;3.10;99.90
24097;DHT22;12275;48.550;12.132;2022-12-29T01:58:13;3.10;99.90
24097;DHT22;12275;48.550;12.132;2022-12-29T02:00:40;3.10;99.90
24097;DHT22;12275;48.550;12.132;2022-12-29T02:03:06;3.00;99.90
24097;DHT22;12275;48.550;12.132;2022-12-29T02:05:33;3.00;99.90
24097;DHT22;12275;48.550;12.132;2022-12-29T02:08:01;3.00;99.90
24097;DHT22;12275;48.550;12.132;2022-12-29T02:10:28;3.00;99.90
24097;DHT22;12275;48.550;12.132;2022-12-29T02:12:55;2.90;99.90
24097;DHT22;12275;48.550;12.132;2022-12-29T02:15:23;2.90;99.90
24097;DHT22;12275;48.550;12.132;2022-12-29T02:17:57;2.90;99.90
24097;DHT22;12275;48.550;12.132;2022-12-29T02:30:31;3.00;99.90
24097;DHT22;12275;48.550;12.132;2022-12-29T02:37:59;3.00;99.90
24097;DHT22;12275;48.550;12.132;2022-12-29T02:50:27;3.00;99.90
24097;DHT22;12275;48.550;12.132;2022-12-29T02:53:00;3.00;99.90
24097;DHT22;12275;48.550;12.132;2022-12-29T02:55:26;3.00;99.90
24097;DHT22;12275;48.550;12.132;2022-12-29T03:00:37;2.90;99.90
24097;DHT22;12275;48.550;12.132;2022-12-29T03:06:06;2.90;99.90
24097;DHT22;12275;48.550;12.132;2022-12-29T03:08:35;3.00;99.90
24097;DHT22;12275;48.550;12.132;2022-12-29T03:11:08;3.00;99.90
24097;DHT22;12275;48.550;12.132;2022-12-29T03:13:56;2.90;99.90
24097;DHT22;12275;48.550;12.132;2022-12-29T03:16:50;2.90;99.90
24097;DHT22;12275;48.550;12.132;2022-12-29T03:19:18;2.90;99.90
24097;DHT22;12275;48.550;12.132;2022-12-29T03:21:46;2.80;99.90
24097;DHT22;12275;48.550;12.132;2022-12-29T03:24:32;2.90;99.90
24097;DHT22;12275;48.550;12.132;2022-12-29T03:27:00;2.80;99.90
24097;DHT22;12275;48.550;12.132;2022-12-29T03:29:27;2.80;99.90
24097;DHT22;12275;48.550;12.132;2022-12-29T03:31:54;2.80;99.90
24097;DHT22;12275;48.550;12.132;2022-12-29T03:34:20;2.70;99.90
24097;DHT22;12275;48.550;12.132;2022-12-29T03:36:52;2.80;99.90
24097;DHT22;12275;48.550;12.132;2022-12-29T03:39:18;2.80;99.90
24097;DHT22;12275;48.550;12.132;2022-12-29T03:41:45;2.80;99.90
24097;DHT22;12275;48.550;12.132;2022-12-29T03:44:12;2.80;99.90
24097;DHT22;12275;48.550;12.132;2022-12-29T03:46:38;2.80;99.90
24097;DHT22;12275;48.550;12.132;2022-12-29T03:49:03;2.90;99.90
24097;DHT22;12275;48.550;12.132;2022-12-29T03:51:29;2.90;99.90
24097;DHT22;12275;48.550;12.132;2022-12-29T03:53:54;2.90;99.90
24097;DHT22;12275;48.550;12.132;2022-12-29T03:56:20;2.90;99.90
24097;DHT22;12275;48.550;12.132;2022-12-29T03:58:45;2.90;99.90
24097;DHT22;12275;48.550;12.132;2022-12-29T04:01:11;2.90;99.90
24097;DHT22;12275;48.550;12.132;2022-12-29T04:03:36;2.90;99.90
24097;DHT22;12275;48.550;12.132;2022-12-29T04:06:02;3.00;99.90
24097;DHT22;12275;48.550;12.132;2022-12-29T04:08:27;3.00;99.90
24097;DHT22;12275;48.550;12.132;2022-12-29T04:10:53;3.00;99.90
24097;DHT22;12275;48.550;12.132;2022-12-29T04:13:18;3.00;99.90
24097;DHT22;12275;48.550;12.132;2022-12-29T04:15:44;3.00;99.90
24097;DHT22;12275;48.550;12.132;2022-12-29T04:18:11;3.00;99.90
24097;DHT22;12275;48.550;12.132;2022-12-29T04:20:36;3.10;99.90
24097;DHT22;12275;48.550;12.132;2022-12-29T04:23:20;3.10;99.90
24097;DHT22;12275;48.550;12.132;2022-12-29T04:25:46;3.10;99.90
24097;DHT22;12275;48.550;12.132;2022-12-29T04:28:15;3.10;99.90
24097;DHT22;12275;48.550;12.132;2022-12-29T04:30:41;3.20;99.90
24097;DHT22;12275;48.550;12.132;2022-12-29T04:33:06;3.20;99.90
24097;DHT22;12275;48.550;12.132;2022-12-29T04:35:32;3.20;99.90
24097;DHT22;12275;48.550;12.132;2022-12-29T04:37:57;3.20;99.90
24097;DHT22;12275;48.550;12.132;2022-12-29T04:40:23;3.20;99.90
24097;DHT22;12275;48.550;12.132;2022-12-29T04:42:49;3.20;99.90
24097;DHT22;12275;48.550;12.132;2022-12-29T04:45:14;3.30;99.90
24097;DHT22;12275;48.550;12.132;2022-12-29T04:47:40;3.30;99.90
24097;DHT22;12275;48.550;12.132;2022-12-29T04:50:06;3.30;99.90
24097;DHT22;12275;48.550;12.132;2022-12-29T04:52:31;3.40;99.90
24097;DHT22;12275;48.550;12.132;2022-12-29T04:54:57;3.40;99.90
24097;DHT22;12275;48.550;12.132;2022-12-29T04:57:22;3.40;99.90
24097;DHT22;12275;48.550;12.132;2022-12-29T04:59:48;3.50;99.90
24097;DHT22;12275;48.550;12.132;2022-12-29T05:02:15;3.50;99.90
24097;DHT22;12275;48.550;12.132;2022-12-29T05:04:40;3.50;99.90
24097;DHT22;12275;48.550;12.132;2022-12-29T05:07:06;3.50;99.90
24097;DHT22;12275;48.550;12.132;2022-12-29T05:09:32;3.40;99.90
24097;DHT22;12275;48.550;12.132;2022-12-29T05:11:58;3.50;99.90
24097;DHT22;12275;48.550;12.132;2022-12-29T05:14:23;3.50;99.90
24097;DHT22;12275;48.550;12.132;2022-12-29T05:16:49;3.50;99.90
24097;DHT22;12275;48.550;12.132;2022-12-29T05:19:14;3.50;99.90
24097;DHT22;12275;48.550;12.132;2022-12-29T05:21:40;3.50;99.90
24097;DHT22;12275;48.550;12.132;2022-12-29T05:24:06;3.50;99.90
24097;DHT22;12275;48.550;12.132;2022-12-29T05:26:31;3.50;99.90
24097;DHT22;12275;48.550;12.132;2022-12-29T05:28:57;3.50;99.90
24097;DHT22;12275;48.550;12.132;2022-12-29T05:31:22;3.50;99.90
24097;DHT22;12275;48.550;12.132;2022-12-29T05:33:48;3.60;99.90
24097;DHT22;12275;48.550;12.132;2022-12-29T05:36:13;3.60;99.90
24097;DHT22;12275;48.550;12.132;2022-12-29T05:38:39;3.60;99.90
24097;DHT22;12275;48.550;12.132;2022-12-29T05:41:04;3.60;99.90
24097;DHT22;12275;48.550;12.132;2022-12-29T05:43:30;3.60;99.90
24097;DHT22;12275;48.550;12.132;2022-12-29T05:45:56;3.60;99.90
24097;DHT22;12275;48.550;12.132;2022-12-29T05:48:21;3.60;99.90
24097;DHT22;12275;48.550;12.132;2022-12-29T05:50:48;3.60;99.90
24097;DHT22;12275;48.550;12.132;2022-12-29T05:53:13;3.60;99.90
24097;DHT22;12275;48.550;12.132;2022-12-29T05:55:39;3.60;99.90
24097;DHT22;12275;48.550;12.132;2022-12-29T05:58:04;3.60;99.90
24097;DHT22;12275;48.550;12.132;2022-12-29T06:00:30;3.60;99.90
24097;DHT22;12275;48.550;12.132;2022-12-29T06:02:56;3.60;99.90
24097;DHT22;12275;48.550;12.132;2022-12-29T06:05:21;3.60;99.90
24097;DHT22;12275;48.550;12.132;2022-12-29T06:07:47;3.60;99.90
24097;DHT22;12275;48.550;12.132;2022-12-29T06:10:12;3.70;99.90
24097;DHT22;12275;48.550;12.132;2022-12-29T06:12:38;3.70;99.90
24097;DHT22;12275;48.550;12.132;2022-12-29T06:15:03;3.70;99.90
24097;DHT22;12275;48.550;12.132;2022-12-29T06:17:29;3.70;99.90
24097;DHT22;12275;48.550;12.132;2022-12-29T06:19:55;3.60;99.90
24097;DHT22;12275;48.550;12.132;2022-12-29T06:22:20;3.70;99.90
24097;DHT22;12275;48.550;12.132;2022-12-29T06:24:46;3.70;99.90
24097;DHT22;12275;48.550;12.132;2022-12-29T06:27:11;3.70;99.90
24097;DHT22;12275;48.550;12.132;2022-12-29T06:29:37;3.70;99.90
24097;DHT22;12275;48.550;12.132;2022-12-29T06:32:05;3.70;99.90
24097;DHT22;12275;48.550;12.132;2022-12-29T06:34:30;3.70;99.90
24097;DHT22;12275;48.550;12.132;2022-12-29T06:36:56;3.70;99.90
24097;DHT22;12275;48.550;12.132;2022-12-29T06:39:21;3.80;99.90
24097;DHT22;12275;48.550;12.132;2022-12-29T06:41:47;3.90;99.90
24097;DHT22;12275;48.550;12.132;2022-12-29T06:44:12;3.90;99.90
24097;DHT22;12275;48.550;12.132;2022-12-29T06:46:38;3.90;99.90
24097;DHT22;12275;48.550;12.132;2022-12-29T06:49:03;3.90;99.90
24097;DHT22;12275;48.550;12.132;2022-12-29T06:51:29;3.90;99.90
24097;DHT22;12275;48.550;12.132;2022-12-29T06:53:55;3.80;99.90
24097;DHT22;12275;48.550;12.132;2022-12-29T06:56:20;3.80;99.90
24097;DHT22;12275;48.550;12.132;2022-12-29T06:58:46;3.80;99.90
24097;DHT22;12275;48.550;12.132;2022-12-29T07:01:11;3.90;99.90
24097;DHT22;12275;48.550;12.132;2022-12-29T07:03:37;3.90;99.90
24097;DHT22;12275;48.550;12.132;2022-12-29T07:06:02;3.80;99.90
24097;DHT22;12275;48.550;12.132;2022-12-29T07:08:28;3.90;99.90
24097;DHT22;12275;48.550;12.132;2022-12-29T07:10:54;3.90;99.90
24097;DHT22;12275;48.550;12.132;2022-12-29T07:13:19;3.90;99.90
24097;DHT22;12275;48.550;12.132;2022-12-29T07:15:45;3.90;99.90
24097;DHT22;12275;48.550;12.132;2022-12-29T07:18:10;4.00;99.90
24097;DHT22;12275;48.550;12.132;2022-12-29T07:20:36;4.00;99.90
24097;DHT22;12275;48.550;12.132;2022-12-29T07:23:01;4.10;99.90
24097;DHT22;12275;48.550;12.132;2022-12-29T07:25:27;4.10;99.90
24097;DHT22;12275;48.550;12.132;2022-12-29T07:27:54;4.00;99.90
24097;DHT22;12275;48.550;12.132;2022-12-29T07:30:19;4.10;99.90
24097;DHT22;12275;48.550;12.132;2022-12-29T07:32:45;4.10;99.90
24097;DHT22;12275;48.550;12.132;2022-12-29T07:35:10;4.10;99.90
24097;DHT22;12275;48.550;12.132;2022-12-29T07:37:36;4.20;99.90
24097;DHT22;12275;48.550;12.132;2022-12-29T07:40:02;4.20;99.90
24097;DHT22;12275;48.550;12.132;2022-12-29T07:42:28;4.20;99.90
24097;DHT22;12275;48.550;12.132;2022-12-29T07:44:54;4.20;99.90
24097;DHT22;12275;48.550;12.132;2022-12-29T07:47:19;4.20;99.90
24097;DHT22;12275;48.550;12.132;2022-12-29T07:49:45;4.30;99.90
24097;DHT22;12275;48.550;12.132;2022-12-29T07:52:10;4.30;99.90
24097;DHT22;12275;48.550;12.132;2022-12-29T07:54:36;4.40;99.90
24097;DHT22;12275;48.550;12.132;2022-12-29T07:57:01;4.50;99.90
24097;DHT22;12275;48.550;12.132;2022-12-29T07:59:27;4.50;99.90
24097;DHT22;12275;48.550;12.132;2022-12-29T08:01:52;4.50;99.90
24097;DHT22;12275;48.550;12.132;2022-12-29T08:04:18;4.50;99.90
24097;DHT22;12275;48.550;12.132;2022-12-29T08:06:44;4.60;99.90
24097;DHT22;12275;48.550;12.132;2022-12-29T08:09:10;4.60;99.90
24097;DHT22;12275;48.550;12.132;2022-12-29T08:11:36;4.50;99.90
24097;DHT22;12275;48.550;12.132;2022-12-29T08:14:02;4.50;99.90
24097;DHT22;12275;48.550;12.132;2022-12-29T08:16:28;4.50;99.90
24097;DHT22;12275;48.550;12.132;2022-12-29T08:18:53;4.60;99.90
24097;DHT22;12275;48.550;12.132;2022-12-29T08:21:19;4.70;99.90
24097;DHT22;12275;48.550;12.132;2022-12-29T08:23:44;4.70;99.90
24097;DHT22;12275;48.550;12.132;2022-12-29T08:26:10;4.70;99.90
24097;DHT22;12275;48.550;12.132;2022-12-29T08:28:36;4.80;99.90
24097;DHT22;12275;48.550;12.132;2022-12-29T08:31:02;4.80;99.90
24097;DHT22;12275;48.550;12.132;2022-12-29T08:33:28;4.70;99.90
24097;DHT22;12275;48.550;12.132;2022-12-29T08:36:01;4.70;99.90
24097;DHT22;12275;48.550;12.132;2022-12-29T08:38:28;4.70;99.90
24097;DHT22;12275;48.550;12.132;2022-12-29T08:40:54;4.80;99.90
24097;DHT22;12275;48.550;12.132;2022-12-29T08:43:20;4.80;99.90
24097;DHT22;12275;48.550;12.132;2022-12-29T08:45:46;4.90;99.90
24097;DHT22;12275;48.550;12.132;2022-12-29T08:48:11;5.10;99.90
24097;DHT22;12275;48.550;12.132;2022-12-29T08:50:37;5.20;99.90
24097;DHT22;12275;48.550;12.132;2022-12-29T08:53:02;5.40;99.90
24097;DHT22;12275;48.550;12.132;2022-12-29T08:55:28;5.50;99.90
24097;DHT22;12275;48.550;12.132;2022-12-29T08:57:53;5.60;99.90
24097;DHT22;12275;48.550;12.132;2022-12-29T09:00:19;5.60;99.90
24097;DHT22;12275;48.550;12.132;2022-12-29T09:02:45;5.80;99.90
24097;DHT22;12275;48.550;12.132;2022-12-29T09:05:11;5.90;99.90
24097;DHT22;12275;48.550;12.132;2022-12-29T09:07:37;6.10;99.90
24097;DHT22;12275;48.550;12.132;2022-12-29T09:10:02;6.10;99.90
24097;DHT22;12275;48.550;12.132;2022-12-29T09:12:28;6.10;99.90
24097;DHT22;12275;48.550;12.132;2022-12-29T09:14:54;6.20;99.90
24097;DHT22;12275;48.550;12.132;2022-12-29T09:17:19;6.30;99.90
24097;DHT22;12275;48.550;12.132;2022-12-29T09:20:03;6.50;99.90
24097;DHT22;12275;48.550;12.132;2022-12-29T09:22:29;6.70;99.90
24097;DHT22;12275;48.550;12.132;2022-12-29T09:24:54;6.90;99.90
24097;DHT22;12275;48.550;12.132;2022-12-29T09:27:20;7.00;99.90
24097;DHT22;12275;48.550;12.132;2022-12-29T09:29:46;7.20;99.90
24097;DHT22;12275;48.550;12.132;2022-12-29T09:32:11;7.40;99.90
24097;DHT22;12275;48.550;12.132;2022-12-29T09:34:37;7.50;99.90
24097;DHT22;12275;48.550;12.132;2022-12-29T09:37:02;7.70;99.90
24097;DHT22;12275;48.550;12.132;2022-12-29T09:39:28;8.00;99.90
24097;DHT22;12275;48.550;12.132;2022-12-29T09:42:55;8.30;99.90
24097;DHT22;12275;48.550;12.132;2022-12-29T09:47:14;8.30;99.90
24097;DHT22;12275;48.550;12.132;2022-12-29T09:52:54;8.60;99.90
24097;DHT22;12275;48.550;12.132;2022-12-29T09:57:35;9.20;99.90
24097;DHT22;12275;48.550;12.132;2022-12-29T10:00:06;9.50;99.90
24097;DHT22;12275;48.550;12.132;2022-12-29T10:02:40;9.60;99.90
24097;DHT22;12275;48.550;12.132;2022-12-29T10:05:17;9.60;99.90
24097;DHT22;12275;48.550;12.132;2022-12-29T10:10:22;9.30;99.90
24097;DHT22;12275;48.550;12.132;2022-12-29T10:25:56;9.10;99.90
24097;DHT22;12275;48.550;12.132;2022-12-29T10:28:23;9.00;99.90
24097;DHT22;12275;48.550;12.132;2022-12-29T10:30:49;9.10;99.90
24097;DHT22;12275;48.550;12.132;2022-12-29T10:33:21;9.00;99.90
24097;DHT22;12275;48.550;12.132;2022-12-29T10:35:49;9.00;99.90
24097;DHT22;12275;48.550;12.132;2022-12-29T10:38:17;9.00;99.90
24097;DHT22;12275;48.550;12.132;2022-12-29T10:40:51;9.00;99.90
24097;DHT22;12275;48.550;12.132;2022-12-29T10:43:25;9.00;99.90
24097;DHT22;12275;48.550;12.132;2022-12-29T10:45:52;9.00;99.90
24097;DHT22;12275;48.550;12.132;2022-12-29T10:48:39;9.00;99.90
24097;DHT22;12275;48.550;12.132;2022-12-29T10:51:05;9.00;99.90
24097;DHT22;12275;48.550;12.132;2022-12-29T10:53:40;9.10;99.90
24097;DHT22;12275;48.550;12.132;2022-12-29T10:59:29;9.20;99.90
24097;DHT22;12275;48.550;12.132;2022-12-29T11:04:32;9.50;99.90
24097;DHT22;12275;48.550;12.132;2022-12-29T11:07:00;9.90;99.90
24097;DHT22;12275;48.550;12.132;2022-12-29T11:09:29;9.90;99.90
24097;DHT22;12275;48.550;12.132;2022-12-29T11:11:55;10.00;99.90
24097;DHT22;12275;48.550;12.132;2022-12-29T11:14:26;10.10;99.90
24097;DHT22;12275;48.550;12.132;2022-12-29T11:16:58;10.10;99.90
24097;DHT22;12275;48.550;12.132;2022-12-29T11:19:28;10.00;99.90
24097;DHT22;12275;48.550;12.132;2022-12-29T11:22:01;10.10;99.90
24097;DHT22;12275;48.550;12.132;2022-12-29T11:24:37;10.20;99.90
24097;DHT22;12275;48.550;12.132;2022-12-29T11:27:10;10.30;99.90
24097;DHT22;12275;48.550;12.132;2022-12-29T11:29:42;10.40;99.90
24097;DHT22;12275;48.550;12.132;2022-12-29T11:32:27;10.50;99.90
24097;DHT22;12275;48.550;12.132;2022-12-29T11:34:58;10.40;99.90
24097;DHT22;12275;48.550;12.132;2022-12-29T11:37:28;10.40;99.90
24097;DHT22;12275;48.550;12.132;2022-12-29T11:39:55;10.40;99.90
24097;DHT22;12275;48.550;12.132;2022-12-29T11:42:22;10.30;99.90
24097;DHT22;12275;48.550;12.132;2022-12-29T11:44:49;10.30;99.90
24097;DHT22;12275;48.550;12.132;2022-12-29T11:47:30;10.20;99.90
24097;DHT22;12275;48.550;12.132;2022-12-29T11:49:58;10.10;99.90
24097;DHT22;12275;48.550;12.132;2022-12-29T11:52:24;10.10;99.90
24097;DHT22;12275;48.550;12.132;2022-12-29T11:54:51;10.20;99.90
24097;DHT22;12275;48.550;12.132;2022-12-29T11:57:17;10.20;99.90
24097;DHT22;12275;48.550;12.132;2022-12-29T12:05:04;10.20;99.90
24097;DHT22;12275;48.550;12.132;2022-12-29T12:07:37;10.30;99.90
24097;DHT22;12275;48.550;12.132;2022-12-29T12:10:04;10.30;99.90
24097;DHT22;12275;48.550;12.132;2022-12-29T12:12:35;10.30;99.90
24097;DHT22;12275;48.550;12.132;2022-12-29T12:15:03;10.20;99.90
24097;DHT22;12275;48.550;12.132;2022-12-29T12:25:25;10.70;99.90
24097;DHT22;12275;48.550;12.132;2022-12-29T12:28:04;10.80;99.90
24097;DHT22;12275;48.550;12.132;2022-12-29T12:30:36;10.70;99.90
24097;DHT22;12275;48.550;12.132;2022-12-29T12:35:43;10.60;99.90
24097;DHT22;12275;48.550;12.132;2022-12-29T12:38:16;10.60;99.90
24097;DHT22;12275;48.550;12.132;2022-12-29T12:40:51;10.60;99.90
24097;DHT22;12275;48.550;12.132;2022-12-29T12:43:39;10.70;99.90
24097;DHT22;12275;48.550;12.132;2022-12-29T12:51:19;11.10;99.90
24097;DHT22;12275;48.550;12.132;2022-12-29T12:56:21;11.20;99.90
24097;DHT22;12275;48.550;12.132;2022-12-29T12:59:06;11.30;99.90
24097;DHT22;12275;48.550;12.132;2022-12-29T13:01:55;11.40;99.90
24097;DHT22;12275;48.550;12.132;2022-12-29T13:04:32;11.40;99.90
24097;DHT22;12275;48.550;12.132;2022-12-29T13:07:13;11.40;99.90
24097;DHT22;12275;48.550;12.132;2022-12-29T13:10:09;11.30;99.90
24097;DHT22;12275;48.550;12.132;2022-12-29T13:17:26;11.20;99.90
24097;DHT22;12275;48.550;12.132;2022-12-29T13:22:44;11.10;99.90
24097;DHT22;12275;48.550;12.132;2022-12-29T13:25:26;11.10;99.90
24097;DHT22;12275;48.550;12.132;2022-12-29T13:28:00;11.00;99.90
24097;DHT22;12275;48.550;12.132;2022-12-29T13:30:41;11.00;99.90
24097;DHT22;12275;48.550;12.132;2022-12-29T13:38:42;10.90;99.90
24097;DHT22;12275;48.550;12.132;2022-12-29T13:41:09;10.90;99.90
24097;DHT22;12275;48.550;12.132;2022-12-29T13:43:37;10.80;99.90
24097;DHT22;12275;48.550;12.132;2022-12-29T13:46:13;10.80;99.90
24097;DHT22;12275;48.550;12.132;2022-12-29T13:49:02;10.70;99.90
24097;DHT22;12275;48.550;12.132;2022-12-29T13:51:26;10.70;99.90
24097;DHT22;12275;48.550;12.132;2022-12-29T13:56:25;10.70;99.90
24097;DHT22;12275;48.550;12.132;2022-12-29T13:58:57;10.60;99.90
24097;DHT22;12275;48.550;12.132;2022-12-29T14:01:32;10.60;99.90
24097;DHT22;12275;48.550;12.132;2022-12-29T14:03:59;10.50;99.90
24097;DHT22;12275;48.550;12.132;2022-12-29T14:06:26;10.50;99.90
24097;DHT22;12275;48.550;12.132;2022-12-29T14:09:00;10.50;99.90
24097;DHT22;12275;48.550;12.132;2022-12-29T14:11:36;10.40;99.90
24097;DHT22;12275;48.550;12.132;2022-12-29T14:16:47;10.40;99.90
24097;DHT22;12275;48.550;12.132;2022-12-29T14:21:41;10.40;99.90
24097;DHT22;12275;48.550;12.132;2022-12-29T14:34:56;10.30;99.90
24097;DHT22;12275;48.550;12.132;2022-12-29T14:37:23;10.20;99.90
24097;DHT22;12275;48.550;12.132;2022-12-29T14:39:49;10.10;99.90
24097;DHT22;12275;48.550;12.132;2022-12-29T14:42:27;10.10;99.90
24097;DHT22;12275;48.550;12.132;2022-12-29T14:47:39;10.00;99.90
24097;DHT22;12275;48.550;12.132;2022-12-29T14:50:07;10.00;99.90
24097;DHT22;12275;48.550;12.132;2022-12-29T14:52:41;9.90;99.90
24097;DHT22;12275;48.550;12.132;2022-12-29T14:57:41;9.90;99.90
24097;DHT22;12275;48.550;12.132;2022-12-29T15:03:06;9.90;99.90
24097;DHT22;12275;48.550;12.132;2022-12-29T15:05:32;9.90;99.90
24097;DHT22;12275;48.550;12.132;2022-12-29T15:07:58;9.80;99.90
24097;DHT22;12275;48.550;12.132;2022-12-29T15:10:24;9.90;99.90
24097;DHT22;12275;48.550;12.132;2022-12-29T15:12:54;9.80;99.90
24097;DHT22;12275;48.550;12.132;2022-12-29T15:15:21;9.80;99.90
24097;DHT22;12275;48.550;12.132;2022-12-29T15:17:50;9.80;99.90
24097;DHT22;12275;48.550;12.132;2022-12-29T15:20:30;9.80;99.90
24097;DHT22;12275;48.550;12.132;2022-12-29T15:25:22;9.80;99.90
24097;DHT22;12275;48.550;12.132;2022-12-29T15:27:49;9.80;99.90
24097;DHT22;12275;48.550;12.132;2022-12-29T15:30:18;9.90;99.90
24097;DHT22;12275;48.550;12.132;2022-12-29T15:32:45;9.80;99.90
24097;DHT22;12275;48.550;12.132;2022-12-29T15:35:24;9.90;99.90
24097;DHT22;12275;48.550;12.132;2022-12-29T15:37:50;9.90;99.90
24097;DHT22;12275;48.550;12.132;2022-12-29T15:40:50;9.90;99.90
24097;DHT22;12275;48.550;12.132;2022-12-29T15:45:53;9.80;99.90
24097;DHT22;12275;48.550;12.132;2022-12-29T15:48:21;9.80;99.90
24097;DHT22;12275;48.550;12.132;2022-12-29T15:50:47;9.80;99.90
24097;DHT22;12275;48.550;12.132;2022-12-29T15:53:18;9.80;99.90
24097;DHT22;12275;48.550;12.132;2022-12-29T15:55:43;9.80;99.90
24097;DHT22;12275;48.550;12.132;2022-12-29T15:58:19;9.70;99.90
24097;DHT22;12275;48.550;12.132;2022-12-29T16:00:52;9.70;99.90
24097;DHT22;12275;48.550;12.132;2022-12-29T16:03:22;9.60;99.90
24097;DHT22;12275;48.550;12.132;2022-12-29T16:05:52;9.60;99.90
24097;DHT22;12275;48.550;12.132;2022-12-29T16:08:32;9.60;99.90
24097;DHT22;12275;48.550;12.132;2022-12-29T16:10:59;9.50;99.90
24097;DHT22;12275;48.550;12.132;2022-12-29T16:13:30;9.50;99.90
24097;DHT22;12275;48.550;12.132;2022-12-29T16:15:59;9.50;99.90
24097;DHT22;12275;48.550;12.132;2022-12-29T16:18:27;9.40;99.90
24097;DHT22;12275;48.550;12.132;2022-12-29T16:20:53;9.50;99.90
24097;DHT22;12275;48.550;12.132;2022-12-29T16:23:20;9.50;99.90
24097;DHT22;12275;48.550;12.132;2022-12-29T16:25:47;9.50;99.90
24097;DHT22;12275;48.550;12.132;2022-12-29T16:28:17;9.50;99.90
24097;DHT22;12275;48.550;12.132;2022-12-29T16:30:43;9.50;99.90
24097;DHT22;12275;48.550;12.132;2022-12-29T16:35:53;9.40;99.90
24097;DHT22;12275;48.550;12.132;2022-12-29T16:38:19;9.40;99.90
24097;DHT22;12275;48.550;12.132;2022-12-29T16:40:50;9.30;99.90
24097;DHT22;12275;48.550;12.132;2022-12-29T16:43:26;9.40;99.90
24097;DHT22;12275;48.550;12.132;2022-12-29T16:48:19;9.30;99.90
24097;DHT22;12275;48.550;12.132;2022-12-29T16:50:45;9.30;99.90
24097;DHT22;12275;48.550;12.132;2022-12-29T16:53:19;9.20;99.90
24097;DHT22;12275;48.550;12.132;2022-12-29T16:55:46;9.30;99.90
24097;DHT22;12275;48.550;12.132;2022-12-29T16:58:12;9.30;99.90
24097;DHT22;12275;48.550;12.132;2022-12-29T17:00:41;9.20;99.90
24097;DHT22;12275;48.550;12.132;2022-12-29T17:03:09;9.20;99.90
24097;DHT22;12275;48.550;12.132;2022-12-29T17:05:36;9.20;99.90
24097;DHT22;12275;48.550;12.132;2022-12-29T17:08:02;9.10;99.90
24097;DHT22;12275;48.550;12.132;2022-12-29T17:10:27;9.10;99.90
24097;DHT22;12275;48.550;12.132;2022-12-29T17:13:13;9.20;99.90
24097;DHT22;12275;48.550;12.132;2022-12-29T17:15:39;9.20;99.90
24097;DHT22;12275;48.550;12.132;2022-12-29T17:18:04;9.10;99.90
24097;DHT22;12275;48.550;12.132;2022-12-29T17:20:30;9.10;99.90
24097;DHT22;12275;48.550;12.132;2022-12-29T17:22:57;9.10;99.90
24097;DHT22;12275;48.550;12.132;2022-12-29T17:25:23;9.10;99.90
24097;DHT22;12275;48.550;12.132;2022-12-29T17:27:54;9.00;99.90
24097;DHT22;12275;48.550;12.132;2022-12-29T17:30:21;9.00;99.90
24097;DHT22;12275;48.550;12.132;2022-12-29T17:33:34;9.00;99.90
24097;DHT22;12275;48.550;12.132;2022-12-29T17:35:33;9.00;99.90
24097;DHT22;12275;48.550;12.132;2022-12-29T17:37:59;9.00;99.90
24097;DHT22;12275;48.550;12.132;2022-12-29T17:40:31;8.90;99.90
24097;DHT22;12275;48.550;12.132;2022-12-29T17:42:57;9.00;99.90
24097;DHT22;12275;48.550;12.132;2022-12-29T17:45:27;8.90;99.90
24097;DHT22;12275;48.550;12.132;2022-12-29T17:47:53;9.00;99.90
24097;DHT22;12275;48.550;12.132;2022-12-29T17:50:20;9.00;99.90
24097;DHT22;12275;48.550;12.132;2022-12-29T17:52:51;9.00;99.90